Terminal Aerodrome Forecast
Issued by NWS

Home | Current Version | Previous Version | Graphics & Text | Print | Product List | Glossary On
Versions: 1 2 3 4 5 6 7 8 9 10 11 12 13 14 15 16 17 18 19 20
000
FTUS43 KMPX 211700 RRA
TAFRNH
TAF
KRNH 211739Z 2118/2218 16008KT P6SM SCT015 BKN040
      TEMPO 2118/2120 BKN015
     FM212000 18007KT 6SM -SHRA BR SCT040 BKN060
      TEMPO 2122/2202 4SM -RA BR SCT020 BKN040
     FM220200 VRB03KT P6SM SCT040
     FM220500 VRB03KT 3SM BR SCT003
     FM220800 VRB03KT 1/4SM FG VV001
     FM221400 34004KT 2SM BR OVC003
     FM221600 35007KT 4SM BR OVC008=

USA.gov is the U.S. government's official web portal to all federal, state and local government web resources and services.